Time;durP1;ratioP1;P1;durP2;ratioP2;P2;SDS_P1;SDS_P2;PMS_P1;PMS_P2;Temp;Humidity;BMP_temperature;BMP_pressure;BME280_temperature;BME280_humidity;BME280_pressure;Samples;Min_cycle;Max_cycle;Signal;HPM_P1;HPM_P2
2021/04/23 17:16:49;;;;;;;10.38;4.13;;;25.70;41.10;;;;;;5125616;27;20306;-72
2021/04/23 17:19:15;;;;;;;10.35;4.07;;;25.50;39.90;;;;;;5124724;28;20041;-72
2021/04/23 17:21:40;;;;;;;9.25;4.45;;;26.00;39.40;;;;;;5107458;28;20031;-73
2021/04/23 17:24:06;;;;;;;7.65;3.92;;;25.90;38.80;;;;;;5103952;28;20020;-74
2021/04/23 17:26:32;;;;;;;9.38;4.10;;;25.10;38.70;;;;;;5086027;28;20023;-72
2021/04/23 17:28:58;;;;;;;8.45;3.70;;;24.60;39.70;;;;;;5104486;28;20046;-72
2021/04/23 17:31:24;;;;;;;7.80;3.58;;;24.60;40.10;;;;;;5103183;28;20015;-72
2021/04/23 17:33:49;;;;;;;8.57;3.92;;;24.50;40.40;;;;;;5104190;28;20024;-72
2021/04/23 17:36:15;;;;;;;6.90;3.90;;;24.70;40.30;;;;;;5104664;28;20441;-73
2021/04/23 17:38:42;;;;;;;7.00;3.85;;;24.30;39.70;;;;;;5103800;28;20089;-73
2021/04/23 17:41:07;;;;;;;9.25;3.65;;;23.70;39.10;;;;;;5095465;28;20050;-73
2021/04/23 17:43:34;;;;;;;7.28;3.50;;;23.10;41.60;;;;;;5103886;28;20020;-73
2021/04/23 17:46:00;;;;;;;8.13;3.50;;;22.90;42.10;;;;;;5085208;28;20024;-72
2021/04/23 17:48:26;;;;;;;9.02;3.88;;;22.60;41.80;;;;;;5099913;28;20016;-73
2021/04/23 17:50:52;;;;;;;11.57;3.30;;;22.40;42.70;;;;;;5103863;28;20031;-72
2021/04/23 17:53:18;;;;;;;10.20;3.33;;;22.30;43.00;;;;;;5103346;28;20027;-70
2021/04/23 17:55:45;;;;;;;8.65;3.78;;;21.90;43.50;;;;;;5104976;28;20028;-71
2021/04/23 17:58:13;;;;;;;7.90;3.90;;;21.70;43.90;;;;;;5102617;28;20028;-70
2021/04/23 18:00:40;;;;;;;9.60;3.72;;;21.00;43.10;;;;;;5103757;28;20038;-72
2021/04/23 18:03:06;;;;;;;12.70;4.00;;;20.50;43.90;;;;;;5104942;28;20752;-70
2021/04/23 18:05:33;;;;;;;8.20;3.25;;;19.80;46.60;;;;;;5116017;28;20053;-70
2021/04/23 18:08:00;;;;;;;7.13;2.92;;;19.20;48.20;;;;;;5106651;28;20586;-70
2021/04/23 18:10:25;;;;;;;7.82;3.47;;;18.50;49.60;;;;;;5124534;27;20023;-70
2021/04/23 18:12:52;;;;;;;8.10;2.95;;;18.10;50.70;;;;;;5108825;28;20034;-70
2021/04/23 18:15:19;;;;;;;8.15;3.20;;;17.60;51.40;;;;;;5104485;28;20032;-70
2021/04/23 18:17:46;;;;;;;7.22;3.10;;;17.30;52.60;;;;;;5086188;28;20015;-70
2021/04/23 18:20:14;;;;;;;8.60;2.75;;;16.90;53.10;;;;;;5084921;28;20085;-70
2021/04/23 18:22:40;;;;;;;10.23;3.28;;;16.60;53.00;;;;;;5104265;28;20028;-70
2021/04/23 18:25:07;;;;;;;8.00;3.40;;;16.30;53.60;;;;;;5085291;28;20031;-73
2021/04/23 18:27:34;;;;;;;11.02;5.00;;;16.10;54.00;;;;;;5089293;28;20019;-73
2021/04/23 18:29:59;;;;;;;6.63;2.75;;;15.90;54.70;;;;;;5083191;28;20028;-73
2021/04/23 18:32:25;;;;;;;6.63;2.92;;;15.80;56.20;;;;;;5089653;28;20119;-73
2021/04/23 18:34:53;;;;;;;10.35;3.13;;;15.30;56.10;;;;;;5089730;28;20042;-73
2021/04/23 18:37:19;;;;;;;7.72;3.25;;;15.20;56.40;;;;;;5090607;28;20499;-71
2021/04/23 18:39:44;;;;;;;10.82;3.20;;;15.00;56.90;;;;;;5088383;28;20056;-73
2021/04/23 18:42:13;;;;;;;7.28;3.13;;;14.80;57.70;;;;;;5089671;28;20052;-72
2021/04/23 18:44:39;;;;;;;8.23;3.10;;;14.50;56.70;;;;;;5089380;28;20107;-74
2021/04/23 18:47:04;;;;;;;7.10;2.97;;;14.40;59.10;;;;;;5088881;28;20099;-73
2021/04/23 18:49:30;;;;;;;8.73;3.13;;;14.50;59.80;;;;;;5089398;28;20024;-74
2021/04/23 18:51:56;;;;;;;6.85;3.05;;;14.20;60.50;;;;;;5088946;28;20024;-73
2021/04/23 18:54:21;;;;;;;5.18;2.90;;;13.70;60.80;;;;;;5088791;28;20020;-72
2021/04/23 18:56:47;;;;;;;7.65;3.15;;;13.70;61.60;;;;;;5089630;28;20424;-73
2021/04/23 18:59:13;;;;;;;7.40;3.47;;;13.40;62.30;;;;;;5070972;28;20020;-73
2021/04/23 19:01:38;;;;;;;11.23;3.40;;;13.30;62.40;;;;;;5089216;28;20036;-75
2021/04/23 19:04:04;;;;;;;11.85;3.45;;;13.10;62.60;;;;;;5070706;28;20035;-71
2021/04/23 19:06:30;;;;;;;7.78;3.33;;;13.20;62.80;;;;;;5088715;28;20024;-74
2021/04/23 19:08:58;;;;;;;8.52;3.38;;;13.30;63.20;;;;;;5088993;28;20035;-72
2021/04/23 19:11:29;;;;;;;7.80;3.22;;;13.50;64.10;;;;;;5089715;28;20090;-75
2021/04/23 19:13:56;;;;;;;8.70;3.28;;;12.70;65.30;;;;;;5071053;28;20495;-73
2021/04/23 19:16:27;;;;;;;12.20;3.45;;;12.50;63.30;;;;;;5071522;28;20400;-74
2021/04/23 19:18:55;;;;;;;14.82;3.58;;;12.60;66.90;;;;;;5087855;28;20613;-74
2021/04/23 19:21:22;;;;;;;10.30;3.25;;;12.20;68.00;;;;;;5067445;28;20090;-74
2021/04/23 19:23:49;;;;;;;8.10;3.60;;;11.90;70.40;;;;;;5090110;28;20083;-72
2021/04/23 19:26:15;;;;;;;13.40;3.80;;;11.70;69.00;;;;;;5089559;28;20099;-76
2021/04/23 19:28:41;;;;;;;12.73;3.80;;;11.40;72.30;;;;;;5091844;28;20032;-75
2021/04/23 19:31:06;;;;;;;7.82;3.47;;;11.50;73.70;;;;;;5105394;28;20024;-73
2021/04/23 19:33:32;;;;;;;8.40;3.67;;;11.60;73.60;;;;;;5070645;28;20039;-73
2021/04/23 19:35:59;;;;;;;9.65;4.00;;;11.20;76.20;;;;;;5088132;28;20393;-72
2021/04/23 19:38:26;;;;;;;10.63;3.53;;;11.10;75.90;;;;;;5053119;28;20166;-74
2021/04/23 19:40:52;;;;;;;7.50;3.70;;;11.20;80.80;;;;;;5087526;28;20024;-75
2021/04/23 19:43:18;;;;;;;9.68;5.10;;;10.90;85.60;;;;;;5088525;28;20089;-73
2021/04/23 19:45:45;;;;;;;12.68;3.97;;;10.60;89.00;;;;;;5088166;28;20074;-73
2021/04/23 19:48:12;;;;;;;10.07;3.33;;;10.60;91.10;;;;;;5070476;28;20434;-75
2021/04/23 19:50:40;;;;;;;6.97;3.28;;;10.70;92.80;;;;;;5086995;28;20043;-73
2021/04/23 19:53:06;;;;;;;7.30;3.17;;;10.30;93.70;;;;;;5087795;28;20016;-73
2021/04/23 19:55:32;;;;;;;6.18;3.38;;;10.40;96.10;;;;;;5088021;28;20468;-73
2021/04/23 19:57:58;;;;;;;14.57;3.63;;;10.50;98.90;;;;;;5088726;28;20088;-73
2021/04/23 20:00:27;;;;;;;8.20;2.92;;;9.80;99.80;;;;;;5070415;28;20016;-74
2021/04/23 20:02:53;;;;;;;9.02;3.00;;;9.70;99.90;;;;;;5089428;28;20039;-73
2021/04/23 20:05:21;;;;;;;7.72;3.22;;;9.90;99.90;;;;;;5090315;28;20028;-73
2021/04/23 20:07:46;;;;;;;9.63;3.38;;;9.30;99.90;;;;;;5088213;28;20036;-74
2021/04/23 20:10:18;;;;;;;6.03;3.33;;;9.30;99.90;;;;;;5088592;28;20020;-72
2021/04/23 20:12:44;;;;;;;9.73;3.42;;;9.30;99.90;;;;;;5071530;28;20040;-72
2021/04/23 20:15:10;;;;;;;8.80;3.65;;;8.90;99.90;;;;;;5074612;28;20040;-72
2021/04/23 20:17:36;;;;;;;10.68;4.55;;;8.90;99.90;;;;;;5090820;28;20024;-71
2021/04/23 20:20:04;;;;;;;14.27;4.22;;;9.00;99.90;;;;;;5093376;28;20021;-70
2021/04/23 20:22:30;;;;;;;7.95;4.15;;;8.70;99.90;;;;;;5089592;28;20025;-73
2021/04/23 20:24:56;;;;;;;9.30;4.03;;;8.60;99.90;;;;;;5088447;28;20515;-72
2021/04/23 20:27:22;;;;;;;8.10;4.07;;;8.80;99.90;;;;;;5089524;28;20032;-74
2021/04/23 20:29:49;;;;;;;9.38;4.80;;;9.20;99.90;;;;;;5088373;28;20472;-72
2021/04/23 20:32:14;;;;;;;12.73;5.20;;;8.50;99.90;;;;;;5088899;28;20023;-74
2021/04/23 20:34:40;;;;;;;11.63;4.88;;;8.20;99.90;;;;;;5088295;28;20067;-73
2021/04/23 20:37:08;;;;;;;10.93;4.10;;;8.50;99.90;;;;;;5088463;28;20043;-71
2021/04/23 20:39:33;;;;;;;11.88;4.50;;;8.00;99.90;;;;;;5088411;28;20478;-73
2021/04/23 20:42:00;;;;;;;8.85;4.60;;;8.30;99.90;;;;;;5088073;28;20027;-74
2021/04/23 20:44:25;;;;;;;7.93;4.38;;;8.80;99.90;;;;;;5088039;28;20403;-73
2021/04/23 20:46:52;;;;;;;10.90;4.78;;;8.30;99.90;;;;;;5088060;28;20028;-74
2021/04/23 20:49:18;;;;;;;12.13;4.72;;;8.10;99.90;;;;;;5087513;28;20695;-72
2021/04/23 20:51:45;;;;;;;13.68;4.60;;;8.00;99.90;;;;;;5070027;28;20028;-70
2021/04/23 20:54:11;;;;;;;10.32;4.30;;;8.30;99.90;;;;;;5087904;28;20035;-73
2021/04/23 20:56:36;;;;;;;10.70;4.32;;;7.80;99.90;;;;;;5069991;28;20036;-74
2021/04/23 20:59:02;;;;;;;7.20;4.40;;;8.20;99.90;;;;;;5088339;28;20085;-74
2021/04/23 21:01:28;;;;;;;8.02;4.38;;;7.60;99.90;;;;;;5088231;28;20027;-71
2021/04/23 21:03:54;;;;;;;8.82;4.07;;;7.80;99.90;;;;;;5090464;28;20085;-72
2021/04/23 21:06:19;;;;;;;9.35;4.45;;;7.50;99.90;;;;;;5087156;28;20091;-71
2021/04/23 21:08:46;;;;;;;10.45;5.18;;;7.40;99.90;;;;;;5085801;28;20105;-73
2021/04/23 21:11:12;;;;;;;11.18;5.43;;;7.70;99.90;;;;;;5082366;28;20472;-71
2021/04/23 21:13:38;;;;;;;12.82;4.85;;;8.30;99.90;;;;;;5087154;28;20038;-71
2021/04/23 21:16:04;;;;;;;8.98;4.45;;;7.50;99.90;;;;;;5087496;28;20048;-72
2021/04/23 21:18:30;;;;;;;12.10;4.55;;;7.60;99.90;;;;;;5087093;28;20016;-71
2021/04/23 21:20:55;;;;;;;7.90;4.40;;;7.50;99.90;;;;;;5085932;28;20488;-72
2021/04/23 21:23:21;;;;;;;9.98;4.57;;;7.50;99.90;;;;;;5087795;28;20540;-71
2021/04/23 21:25:47;;;;;;;8.85;4.65;;;8.10;99.90;;;;;;5087014;28;20024;-71
2021/04/23 21:28:12;;;;;;;8.48;4.32;;;7.60;99.90;;;;;;5069246;28;20028;-73
2021/04/23 21:30:40;;;;;;;12.05;4.70;;;7.90;99.90;;;;;;5068037;28;20040;-71
2021/04/23 21:33:05;;;;;;;12.45;4.43;;;7.20;99.90;;;;;;5086905;28;20056;-74
2021/04/23 21:35:31;;;;;;;8.63;4.18;;;8.30;99.90;;;;;;5087564;28;20051;-74
2021/04/23 21:37:57;;;;;;;8.75;4.78;;;7.10;99.90;;;;;;5086464;28;20023;-71
2021/04/23 21:40:22;;;;;;;8.48;4.03;;;7.20;99.90;;;;;;5085069;28;20021;-74
2021/04/23 21:42:48;;;;;;;9.50;3.92;;;7.50;99.90;;;;;;5084923;28;20024;-72
2021/04/23 21:45:15;;;;;;;8.63;4.30;;;7.80;99.90;;;;;;5085398;28;20039;-72
2021/04/23 21:47:45;;;;;;;9.90;4.95;;;7.00;99.90;;;;;;5066256;28;20082;-74
2021/04/23 21:50:13;;;;;;;14.18;4.72;;;7.40;99.90;;;;;;5068791;28;20627;-72
2021/04/23 21:52:40;;;;;;;10.35;3.65;;;6.90;99.90;;;;;;5086651;28;20036;-72
2021/04/23 21:55:06;;;;;;;8.43;4.57;;;6.70;99.90;;;;;;5087261;28;20027;-73
2021/04/23 21:57:33;;;;;;;10.50;4.68;;;6.40;99.90;;;;;;5068179;28;20032;-74
2021/04/23 21:59:58;;;;;;;9.82;4.07;;;6.30;99.90;;;;;;5085864;28;20020;-72
2021/04/23 22:02:24;;;;;;;9.10;4.00;;;6.30;99.90;;;;;;5089216;28;20099;-73
2021/04/23 22:04:50;;;;;;;9.13;4.45;;;6.00;99.90;;;;;;5074004;28;20025;-71
2021/04/23 22:07:15;;;;;;;9.48;4.20;;;6.00;99.90;;;;;;5093114;28;20027;-73
2021/04/23 22:09:41;;;;;;;8.23;3.75;;;;;;;;;;5091703;28;20700;-71
2021/04/23 22:12:07;;;;;;;8.02;4.38;;;;;;;;;;5090005;28;20082;-71
2021/04/23 22:14:34;;;;;;;8.27;4.13;;;;;;;;;;5096481;22;20036;-75
2021/04/23 22:17:00;;;;;;;7.20;3.75;;;;;;;;;;5070517;28;20104;-75
2021/04/23 22:19:26;;;;;;;8.43;4.25;;;;;;;;;;5082540;28;20052;-75
2021/04/23 22:21:52;;;;;;;9.60;4.45;;;;;;;;;;5090637;28;20063;-75
2021/04/23 22:24:18;;;;;;;9.65;4.07;;;;;;;;;;5082987;28;20497;-75
2021/04/23 22:26:45;;;;;;;7.20;3.72;;;;;;;;;;5050517;28;20505;-75
2021/04/23 22:29:11;;;;;;;13.02;4.18;;;;;;;;;;5050947;28;20675;-75
2021/04/23 22:31:38;;;;;;;12.70;4.13;;;;;;;;;;5049869;28;20095;-75
2021/04/23 22:34:04;;;;;;;6.75;4.05;;;;;;;;;;5050886;28;20043;-75
2021/04/23 22:36:31;;;;;;;9.70;3.72;;;;;;;;;;5050173;28;20059;-74
2021/04/23 22:38:57;;;;;;;9.32;4.22;;;;;;;;;;5050406;28;20027;-75
2021/04/23 22:41:23;;;;;;;8.07;3.95;;;;;;;;;;5050388;28;20053;-74
2021/04/23 22:43:50;;;;;;;6.82;3.95;;;;;;;;;;5050367;28;20028;-74
2021/04/23 22:46:16;;;;;;;6.63;4.20;;;;;;;;;;5051286;28;20390;-74
2021/04/23 22:48:42;;;;;;;10.27;4.15;;;;;;;;;;5057507;28;20033;-74
2021/04/23 22:51:08;;;;;;;12.18;3.95;;;;;;;;;;5069682;28;20039;-74
2021/04/23 22:53:34;;;;;;;8.88;4.05;;;;;;;;;;5064888;28;20020;-74
2021/04/23 22:56:00;;;;;;;10.65;4.22;;;;;;;;;;5090020;28;20689;-74
2021/04/23 22:58:26;;;;;;;8.60;4.25;;;;;;;;;;5090197;28;20028;-73
2021/04/23 23:00:52;;;;;;;6.82;3.22;;;;;;;;;;5090227;28;20604;-74
2021/04/23 23:03:18;;;;;;;11.43;4.28;;;;;;;;;;5089849;28;20024;-74
2021/04/23 23:05:44;;;;;;;11.88;3.85;;;;;;;;;;5090160;28;20020;-74
2021/04/23 23:08:10;;;;;;;9.38;3.67;;;;;;;;;;5088860;28;20032;-73
2021/04/23 23:10:38;;;;;;;7.63;3.72;;;;;;;;;;5089070;28;20534;-73
2021/04/23 23:13:04;;;;;;;9.57;4.35;;;;;;;;;;5089421;28;20032;-74
